createdAt,value
2023-01-17T00:03:07.397Z,11.10
2023-01-17T00:08:31.518Z,10.95
2023-01-17T00:13:34.192Z,11.32
2023-01-17T00:18:36.890Z,11.00
2023-01-17T00:23:58.282Z,10.82
2023-01-17T00:29:00.749Z,10.75
2023-01-17T00:34:03.314Z,10.23
2023-01-17T00:39:05.762Z,9.52
2023-01-17T00:44:27.001Z,10.00
2023-01-17T00:49:48.021Z,7.70
2023-01-17T00:55:09.176Z,7.90
2023-01-17T01:00:30.617Z,9.80
2023-01-17T01:05:51.821Z,9.98
2023-01-17T01:11:13.299Z,10.57
2023-01-17T01:16:35.285Z,9.88
2023-01-17T01:27:17.347Z,10.55
2023-01-17T01:32:38.364Z,9.48
2023-01-17T01:37:40.953Z,9.93
2023-01-17T01:42:57.124Z,10.20
2023-01-17T01:48:06.204Z,10.23
2023-01-17T01:53:08.931Z,11.27
2023-01-17T01:58:16.429Z,9.40
2023-01-17T02:03:27.409Z,10.38
2023-01-17T02:08:31.431Z,9.97
2023-01-17T02:13:34.073Z,10.23
2023-01-17T02:18:56.450Z,11.10
2023-01-17T02:24:23.639Z,10.07
2023-01-17T02:29:41.136Z,11.55
2023-01-17T02:34:49.513Z,12.05
2023-01-17T02:39:59.965Z,11.50
2023-01-17T02:45:03.059Z,12.15
2023-01-17T02:50:31.935Z,12.18
2023-01-17T02:55:57.788Z,12.85
2023-01-17T03:01:27.883Z,13.23
2023-01-17T03:06:58.756Z,13.10
2023-01-17T03:12:01.379Z,12.85
2023-01-17T03:17:04.595Z,13.23
2023-01-17T03:22:07.129Z,14.40
2023-01-17T03:27:09.686Z,14.48
2023-01-17T03:32:12.201Z,13.38
2023-01-17T03:37:15.165Z,12.95
2023-01-17T03:42:17.932Z,13.85
2023-01-17T03:47:20.517Z,13.27
2023-01-17T03:52:23.109Z,12.95
2023-01-17T03:57:25.701Z,14.02
2023-01-17T04:02:29.235Z,13.65
2023-01-17T04:07:31.808Z,14.30
2023-01-17T04:12:34.393Z,13.77
2023-01-17T04:17:37.054Z,13.43
2023-01-17T04:22:39.712Z,13.63
2023-01-17T04:27:42.256Z,14.30
2023-01-17T04:32:44.875Z,14.68
2023-01-17T04:37:47.553Z,20.60
2023-01-17T04:42:51.411Z,16.13
2023-01-17T04:47:58.771Z,14.32
2023-01-17T04:53:01.350Z,15.30
2023-01-17T04:58:03.929Z,15.88
2023-01-17T05:03:07.868Z,14.93
2023-01-17T05:08:10.565Z,16.23
2023-01-17T05:13:13.221Z,16.20
2023-01-17T05:18:17.677Z,14.52
2023-01-17T05:23:20.269Z,14.60
2023-01-17T05:28:22.771Z,14.23
2023-01-17T05:33:25.325Z,14.50
2023-01-17T05:38:27.869Z,14.25
2023-01-17T05:43:30.576Z,16.25
2023-01-17T05:48:33.155Z,14.32
2023-01-17T05:53:35.782Z,14.18
2023-01-17T05:58:40.118Z,14.35
2023-01-17T06:03:42.655Z,14.52
2023-01-17T06:08:45.785Z,14.48
2023-01-17T06:13:48.993Z,15.13
2023-01-17T06:18:51.588Z,14.50
2023-01-17T06:23:55.401Z,14.07
2023-01-17T06:28:58.087Z,14.45
2023-01-17T06:34:04.821Z,14.85
2023-01-17T06:39:07.489Z,15.90
2023-01-17T06:44:10.389Z,15.10
2023-01-17T06:49:13.090Z,14.98
2023-01-17T06:54:15.779Z,15.10
2023-01-17T06:59:18.470Z,14.43
2023-01-17T07:04:21.069Z,14.77
2023-01-17T07:09:24.282Z,14.40
2023-01-17T07:14:27.006Z,15.68
2023-01-17T07:19:29.768Z,16.20
2023-01-17T07:24:34.308Z,15.45
2023-01-17T07:29:36.944Z,14.57
2023-01-17T07:34:39.510Z,14.85
2023-01-17T07:39:42.151Z,15.05
2023-01-17T07:44:45.542Z,14.50
2023-01-17T07:49:48.086Z,15.48
2023-01-17T07:54:50.792Z,15.27
2023-01-17T07:59:53.347Z,15.05
2023-01-17T08:05:00.845Z,15.40
2023-01-17T08:10:06.821Z,13.90
2023-01-17T08:15:10.298Z,14.88
2023-01-17T08:20:13.168Z,16.00
2023-01-17T08:25:18.750Z,16.98
2023-01-17T08:30:21.341Z,16.60
2023-01-17T08:35:23.920Z,15.98
2023-01-17T08:40:26.861Z,16.27
2023-01-17T08:45:29.489Z,16.55
2023-01-17T08:50:32.041Z,15.75
2023-01-17T08:55:39.564Z,15.65
2023-01-17T09:00:42.108Z,15.68
2023-01-17T09:05:44.814Z,16.67
2023-01-17T09:10:47.398Z,13.93
2023-01-17T09:15:50.128Z,15.18
2023-01-17T09:20:55.282Z,15.70
2023-01-17T09:25:59.900Z,15.57
2023-01-17T09:31:07.483Z,15.73
2023-01-17T09:36:11.012Z,15.85
2023-01-17T09:41:30.137Z,15.73
2023-01-17T09:46:38.611Z,15.82
2023-01-17T09:51:42.698Z,16.33
2023-01-17T09:56:54.661Z,15.95
2023-01-17T10:02:51.608Z,15.43
2023-01-17T10:08:01.226Z,16.10
2023-01-17T10:13:19.462Z,16.02
2023-01-17T10:18:30.505Z,15.57
2023-01-17T10:23:46.976Z,13.88
2023-01-17T10:28:53.085Z,15.95
2023-01-17T10:33:57.970Z,16.58
2023-01-17T10:39:19.400Z,16.80
2023-01-17T10:44:27.605Z,16.48
2023-01-17T10:49:30.893Z,15.20
2023-01-17T10:55:10.447Z,17.77
2023-01-17T11:00:22.002Z,18.45
2023-01-17T11:05:28.845Z,17.45
2023-01-17T11:10:49.472Z,17.48
2023-01-17T11:16:00.834Z,18.02
2023-01-17T11:21:16.204Z,19.45
2023-01-17T11:26:30.427Z,17.48
2023-01-17T11:31:32.987Z,17.67
2023-01-17T11:36:35.705Z,17.02
2023-01-17T11:41:41.195Z,17.67
2023-01-17T11:46:43.760Z,17.05
2023-01-17T11:51:46.398Z,17.83
2023-01-17T11:56:50.601Z,17.70
2023-01-17T12:02:38.613Z,18.45
2023-01-17T12:08:18.314Z,17.35
2023-01-17T12:13:58.119Z,16.83
2023-01-17T12:19:32.497Z,17.27
2023-01-17T12:24:53.538Z,16.88
2023-01-17T12:30:10.895Z,17.17
2023-01-17T12:35:33.582Z,16.23
2023-01-17T12:41:00.341Z,15.85
2023-01-17T12:46:27.276Z,15.90
2023-01-17T12:51:37.608Z,16.40
2023-01-17T12:56:52.615Z,15.05
2023-01-17T13:02:00.075Z,17.15
2023-01-17T13:07:20.396Z,16.55
2023-01-17T13:12:29.837Z,17.33
2023-01-17T13:17:45.091Z,20.15
2023-01-17T13:22:48.124Z,19.10
2023-01-17T13:28:13.613Z,18.33
2023-01-17T13:33:34.997Z,18.38
2023-01-17T13:38:57.695Z,17.20
2023-01-17T13:44:19.557Z,15.10
2023-01-17T13:49:34.251Z,14.35
2023-01-17T13:55:04.569Z,15.05
2023-01-17T14:00:16.293Z,14.15
2023-01-17T14:05:39.058Z,12.65
2023-01-17T14:10:52.311Z,13.18
2023-01-17T14:15:55.032Z,13.77
2023-01-17T14:21:10.031Z,13.68
2023-01-17T14:26:21.332Z,13.20
2023-01-17T14:31:24.725Z,13.98
2023-01-17T14:36:32.555Z,14.75
2023-01-17T14:41:35.149Z,14.98
2023-01-17T14:46:37.743Z,13.88
2023-01-17T14:51:40.254Z,14.77
2023-01-17T14:56:42.774Z,14.82
2023-01-17T15:02:06.809Z,14.52
2023-01-17T15:07:23.041Z,14.75
2023-01-17T15:12:25.694Z,14.82
2023-01-17T15:17:28.712Z,15.43
2023-01-17T15:22:31.531Z,15.65
2023-01-17T15:27:34.339Z,15.65
2023-01-17T15:32:38.065Z,14.82
2023-01-17T15:37:41.795Z,15.15
2023-01-17T15:42:50.678Z,15.77
2023-01-17T15:47:53.217Z,17.02
2023-01-17T15:52:59.153Z,16.80
2023-01-17T15:58:02.746Z,16.98
2023-01-17T16:03:32.794Z,16.25
2023-01-17T16:08:39.847Z,16.75
2023-01-17T16:13:43.526Z,17.73
2023-01-17T16:18:47.245Z,17.77
2023-01-17T16:23:50.418Z,15.60
2023-01-17T16:28:53.071Z,16.25
2023-01-17T16:33:56.134Z,16.98
2023-01-17T16:38:58.772Z,17.05
2023-01-17T16:44:05.473Z,18.42
2023-01-17T16:49:08.092Z,19.00
2023-01-17T16:54:10.691Z,18.05
2023-01-17T16:59:13.275Z,19.60
2023-01-17T17:04:16.206Z,19.38
2023-01-17T17:09:18.774Z,19.95
2023-01-17T17:14:21.415Z,20.40
2023-01-17T17:19:24.272Z,20.50
2023-01-17T17:24:27.027Z,22.15
2023-01-17T17:29:29.653Z,23.30
2023-01-17T17:34:34.358Z,23.08
2023-01-17T17:39:36.968Z,21.25
2023-01-17T17:44:39.562Z,22.83
2023-01-17T17:49:42.747Z,23.20
2023-01-17T17:54:45.306Z,22.42
2023-01-17T17:59:47.885Z,22.15
2023-01-17T18:04:50.493Z,23.42
2023-01-17T18:09:54.008Z,23.73
2023-01-17T18:14:56.593Z,24.52
2023-01-17T18:19:59.744Z,25.38
2023-01-17T18:25:02.613Z,23.83
2023-01-17T18:30:06.622Z,24.42
2023-01-17T18:35:09.719Z,24.95
2023-01-17T18:40:12.468Z,22.25
2023-01-17T18:45:15.514Z,23.88
2023-01-17T18:50:18.165Z,24.38
2023-01-17T18:55:20.757Z,24.15
2023-01-17T19:00:23.933Z,25.25
2023-01-17T19:05:26.549Z,24.92
2023-01-17T19:10:29.116Z,24.52
2023-01-17T19:15:32.116Z,24.33
2023-01-17T19:20:35.772Z,21.95
2023-01-17T19:25:38.377Z,23.90
2023-01-17T19:30:41.028Z,23.73
2023-01-17T19:35:43.608Z,24.73
2023-01-17T19:40:46.305Z,23.77
2023-01-17T19:45:59.441Z,23.67
2023-01-17T19:51:13.139Z,23.35
2023-01-17T19:56:18.712Z,23.58
2023-01-17T20:01:25.323Z,25.83
2023-01-17T20:06:30.876Z,24.02
2023-01-17T20:11:33.838Z,21.58
2023-01-17T20:16:37.785Z,24.85
2023-01-17T20:21:40.510Z,23.88
2023-01-17T20:26:44.119Z,24.48
2023-01-17T20:31:52.514Z,23.30
2023-01-17T20:36:57.550Z,26.40
2023-01-17T20:42:00.131Z,24.35
2023-01-17T20:47:02.695Z,26.05
2023-01-17T20:52:06.265Z,24.63
2023-01-17T20:57:08.969Z,23.42
2023-01-17T21:02:12.701Z,23.52
2023-01-17T21:07:15.353Z,22.35
2023-01-17T21:12:18.148Z,22.70
2023-01-17T21:17:20.718Z,23.15
2023-01-17T21:22:23.265Z,23.33
2023-01-17T21:27:25.823Z,23.55
2023-01-17T21:32:29.803Z,21.13
2023-01-17T21:37:32.426Z,19.35
2023-01-17T21:42:35.044Z,19.65
2023-01-17T21:47:37.632Z,19.67
2023-01-17T21:52:40.259Z,21.17
2023-01-17T21:58:01.391Z,23.30
2023-01-17T22:03:04.042Z,23.97
2023-01-17T22:08:12.569Z,23.13
2023-01-17T22:13:18.449Z,22.95
2023-01-17T22:18:21.025Z,23.23
2023-01-17T22:23:23.711Z,24.45
2023-01-17T22:28:26.271Z,22.65
2023-01-17T22:33:28.769Z,20.05
2023-01-17T22:38:31.915Z,20.48
2023-01-17T22:43:36.380Z,18.73
2023-01-17T22:48:39.969Z,18.80
2023-01-17T22:53:54.461Z,18.58
2023-01-17T22:58:58.889Z,18.60
2023-01-17T23:04:03.921Z,18.27
2023-01-17T23:09:17.340Z,20.75
2023-01-17T23:14:29.131Z,21.65
2023-01-17T23:24:58.678Z,19.60
2023-01-17T23:30:01.844Z,19.73
2023-01-17T23:35:05.975Z,19.98
2023-01-17T23:40:09.521Z,20.45
2023-01-17T23:45:12.080Z,21.83
2023-01-17T23:50:14.719Z,22.20
2023-01-17T23:55:18.159Z,23.23
